Tiempo atmosférico en la estación meteorológica de Telde, Centro Forestal Doramas, Las Palmas (344 m.)



Fecha
DESCASC
Temp. máxima en grados centígrados (hora)
DESCASC
Temp. mínima en grados centígrados (hora)
DESCASC
Temp. media en grados centígrados
DESCASC
Racha de viento máxima en m/sg (hora)
DESCASC
Velocidad máxima media en intervalos de 10 minutos(hora)
DESCASC
Precipitaciones diarias en mm
DESCASC
Precipitaciones de 00:00 a 06:00 en mm
DESCASC
Precipitaciones de 06:00 a 12:00 en mm
DESCASC
Precipitaciones de 12:00 a 18:00 en mm
DESCASC
Precipitaciones de 18:00 a 24:00 en mm
DESCASC
22-01-2020 17 (11:30) 9.6 (07:20) 13.3 9.17 (11:50) 4.17 (08:00) 0.2 0 0 0.2 0
21-01-2020 15.6 (13:20) 10.4 (23:40) 13 9.72 (13:10) 5.83 (15:30) -- 0.2 -- 0.2 0
20-01-2020 16.6 (13:40) 12.4 (23:10) 14.5 11.94 (03:50) 6.94 (04:20) 0.6 0.6 0 0 0
19-01-2020 21.1 (12:30) 12.4 (00:00) 16.8 8.33 (22:50) 5.56 (22:40) 0 0 0 0 0
18-01-2020 19.6 (12:50) 11.8 (00:00) 15.7 7.78 (13:20) 5.28 (13:30) 0 0 0 0 0
17-01-2020 18.7 (13:40) 10 (00:00) 14.4 8.06 (12:20) 4.72 (01:30) 0 0 0 0 0
16-01-2020 19.5 (14:30) 10.3 (00:00) 14.9 7.5 (14:10) 4.72 (04:50) 0 0 0 0 0
15-01-2020 18.9 (13:10) 10.1 (00:00) 14.5 10 (13:30) 6.39 (14:10) 0 0 0 0 0
14-01-2020 19.8 (13:50) 10.8 (00:00) 15.3 10.56 (14:50) 6.11 (15:20) 0 0 0 0 0
13-01-2020 19.8 (14:00) 11.1 (00:00) 15.4 10 (15:00) 5.56 (14:40) 0 0 0 0 0
12-01-2020 17.7 (14:40) 11.4 (00:00) 14.6 7.78 (01:00) 4.72 (00:40) 0 0 0 0 0
11-01-2020 16.4 (11:50) 13.6 (00:00) 15 9.44 (15:00) 6.11 (09:20) 0.4 0.2 0 0.2 0
10-01-2020 17.8 (14:10) 14.1 (00:00) 15.9 10 (09:40) 5.56 (23:10) 1.2 0 1.2 0 0
09-01-2020 18 (14:40) 13.4 (00:00) 15.7 11.67 (13:50) 6.39 (12:10) 0 0 0 0 0
08-01-2020 17.5 (13:50) 13.5 (00:00) 15.5 8.61 (18:30) 4.17 (10:40) 0 0 0 0 0
07-01-2020 17.7 (14:30) 13.5 (00:00) 15.6 11.39 (01:20) 5.28 (01:20) 0.6 0.6 0 0 0
06-01-2020 17.8 (13:40) 14.1 (00:00) 15.9 12.22 (18:30) 6.67 (19:00) 0.2 0 0 0 0.2
05-01-2020 18.9 (13:10) 12.5 (00:00) 15.7 8.33 (15:00) 5 (03:50) 0 0 0 0 0
04-01-2020 18.7 (13:00) 10.8 (00:00) 14.8 6.67 (22:30) 5 (22:40) 0 0 0 0 0
03-01-2020 17.6 (15:10) 11.4 (00:00) 14.5 10.83 (11:20) 5 (11:10) 0 0 0 0 0
02-01-2020 16.7 (16:20) 12.2 (00:00) 14.5 10.83 (10:30) 6.39 (09:40) 0 0 0 0 0
01-01-2020 17.5 (12:30) 10.7 (00:00) 14.1 10 (11:50) 5.83 (14:50) 0 0 0 0 0
31-12-2019 19.4 (14:00) 11.7 (00:00) 15.5 8.61 (13:50) 5.56 (13:50) 0 0 0 0 0
30-12-2019 -- (--) -- (--) -- -- (--) -- (--) -- 0 0 -- 0
29-12-2019 23.3 (14:00) 13.3 (00:00) 18.3 7.5 (12:20) 4.44 (13:10) 0 0 0 0 0
28-12-2019 24.2 (13:40) 14.1 (00:00) 19.2 7.78 (13:00) 4.17 (13:00) 0 0 0 0 0
27-12-2019 22.9 (14:30) 13.8 (00:00) 18.3 6.39 (12:20) 4.72 (04:00) 0 0 0 0 0
26-12-2019 22.3 (17:10) 14.2 (00:00) 18.2 5.56 (15:20) 3.61 (15:20) 0 0 0 0 0

Gráficas

Temp. máximas Temp. mínimas Temp. medias Precipitaciones Rachas de viento máximas Velocidades máximas media en intervalos de 10 minutos

Datos horarios

Fecha y hora oficial Temperatura (ºC) Velocidad del viento (km/h) Dirección del viento Racha (km/h) Dirección de racha Precipitación (mm) Presión (hPa) Tendencia (hPa) Humedad (%)
2020-01-24 23:00:00 12.9 10 Oeste 16 Oeste 0 -- -- 68
2020-01-24 22:00:00 12 10 Oeste 15 Oeste 0 -- -- 70
2020-01-24 21:00:00 11.7 8 Oeste 13 Oeste 0 -- -- 74
2020-01-24 20:00:00 12.2 8 Sudoeste 11 Oeste 0 -- -- 74
2020-01-24 19:00:00 13 7 Oeste 10 Sudoeste 0 -- -- 77
2020-01-24 18:00:00 15 0 Calma 10 Este 0 -- -- 69
2020-01-24 17:00:00 15.8 6 Este 16 Este 0 -- -- 67
2020-01-24 16:00:00 16.6 10 Sudeste 17 Sudeste 0 -- -- 63
2020-01-24 15:00:00 16.6 5 Este 14 Este 0 -- -- 61
2020-01-24 14:00:00 16.8 8 Este 20 Este 0 -- -- 60
2020-01-24 13:00:00 17.6 8 Este 18 Este 0 -- -- 54
2020-01-24 12:00:00 17.7 11 Este 21 Este 0 -- -- 53
2020-01-24 11:00:00 17.4 9 Este 17 Este 0 -- -- 48
2020-01-24 10:00:00 15.9 0 Calma 11 Sudoeste 0 -- -- 52
2020-01-24 09:00:00 12.1 8 Oeste 15 Oeste 0 -- -- 58
2020-01-24 08:00:00 9.9 8 Oeste 17 Oeste 0 -- -- 65
2020-01-24 07:00:00 10.1 10 Oeste 18 Oeste 0 -- -- 64
2020-01-24 06:00:00 10.2 12 Oeste 17 Oeste 0 -- -- 68
2020-01-24 05:00:00 10.1 9 Oeste 18 Oeste 0 -- -- 73
2020-01-24 04:00:00 10.2 9 Oeste 17 Oeste 0 -- -- 68
2020-01-24 03:00:00 10.3 10 Oeste 18 Oeste 0 -- -- 68
2020-01-24 02:00:00 10.6 13 Oeste 17 Oeste 0 -- -- 71
2020-01-24 01:00:00 10.6 10 Oeste 15 Oeste 0 -- -- 76
2020-01-24 00:00:00 11.5 11 Oeste 18 Sudoeste 0 -- -- 74
2020-01-23 23:00:00 11.4 11 Oeste 18 Oeste 0 -- -- 74
2020-01-23 22:00:00 11.8 8 Oeste 12 Sudoeste 0 -- -- 80
2020-01-23 21:00:00 12.8 9 Oeste 12 Oeste 0 -- -- 79
2020-01-23 20:00:00 12.5 4 Oeste 9 Sudoeste 0 -- -- 83
2020-01-23 19:00:00 14.2 0 Calma 4 Sudeste 0 -- -- 79
2020-01-23 18:00:00 14.7 0 Calma 8 Sudeste 0 -- -- 77
2020-01-23 17:00:00 14.9 0 Calma 8 Sudeste 0 -- -- 75
2020-01-23 16:00:00 15 5 Sudeste 9 Sudeste 0.4 -- -- 78
2020-01-23 15:00:00 15.2 8 Este 14 Este 0 -- -- 73
2020-01-23 14:00:00 15.8 10 Este 17 Este 0 -- -- 70
2020-01-23 13:00:00 15.7 9 Este 18 Este 0 -- -- 70
2020-01-23 12:00:00 16.6 10 Este 21 Este 0 -- -- 64
2020-01-23 11:00:00 17.2 9 Sudeste 18 Sudeste 0 -- -- 53
2020-01-23 10:00:00 16.1 6 Sudeste 13 Oeste 0 -- -- 48
2020-01-23 09:00:00 12.1 10 Oeste 19 Oeste 0 -- -- 61
2020-01-23 08:00:00 10.3 13 Oeste 16 Oeste 0 -- -- 63
2020-01-23 07:00:00 10.3 12 Oeste 18 Oeste 0 -- -- 63
2020-01-23 06:00:00 10 8 Oeste 15 Oeste 0 -- -- 63
2020-01-23 05:00:00 10.3 10 Oeste 16 Oeste 0 -- -- 63
2020-01-23 04:00:00 9.9 10 Oeste 16 Oeste 0 -- -- 64
2020-01-23 03:00:00 10.3 11 Oeste 17 Oeste 0 -- -- 63
2020-01-23 02:00:00 10.3 9 Oeste 17 Oeste 0 -- -- 64
2020-01-23 01:00:00 10.3 12 Oeste 17 Oeste 0 -- -- 65
2020-01-23 00:00:00 10.3 9 Oeste 15 Oeste 0 -- -- 67
2020-01-22 23:00:00 10.4 12 Oeste 18 Oeste 0 -- -- 72
2020-01-22 22:00:00 10.6 10 Oeste 15 Oeste 0 -- -- 78
2020-01-22 21:00:00 11 10 Oeste 13 Oeste 0 -- -- 80
2020-01-22 20:00:00 11.3 8 Oeste 12 Oeste 0 -- -- 81
2020-01-22 19:00:00 12.5 5 Oeste 7 Oeste 0 -- -- 79
2020-01-22 18:00:00 13.7 4 Oeste 8 Oeste 0 -- -- 76
2020-01-22 17:00:00 13.8 5 Oeste 8 Oeste 0.2 -- -- 78
2020-01-22 16:00:00 14.7 4 Nordeste 12 Nordeste 0 -- -- 68
2020-01-22 15:00:00 15.2 4 Este 12 Este 0 -- -- 62
2020-01-22 14:00:00 15.1 7 Sudeste 14 Este 0 -- -- 61
2020-01-22 13:00:00 15.5 10 Sudeste 20 Este 0 -- -- 57
2020-01-22 12:00:00 16.6 11 Este 33 Nordeste 0 -- -- 50
2020-01-22 11:00:00 16.5 3 Sudoeste 13 Noroeste 0 -- -- 37
2020-01-22 10:00:00 15.2 4 Oeste 12 Noroeste 0 -- -- 45
2020-01-22 09:00:00 12 12 Oeste 19 Oeste 0 -- -- 53
2020-01-22 08:00:00 10 15 Oeste 20 Oeste 0 -- -- 56
2020-01-22 07:00:00 9.8 13 Oeste 18 Oeste 0 -- -- 58
2020-01-22 06:00:00 10.1 13 Oeste 18 Oeste 0 -- -- 65
2020-01-22 05:00:00 9.9 12 Oeste 19 Oeste 0 -- -- 67
2020-01-22 04:00:00 10.6 10 Oeste 18 Oeste 0 -- -- 64
2020-01-22 03:00:00 10.7 14 Oeste 20 Oeste 0 -- -- 67
2020-01-22 02:00:00 10.6 13 Oeste 17 Oeste 0 -- -- 67
2020-01-22 01:00:00 10.8 10 Oeste 19 Oeste 0 -- -- 67
2020-01-22 00:00:00 10.5 11 Oeste 15 Oeste 0 -- -- 68
2020-01-21 23:00:00 11.6 11 Oeste 21 Noroeste 0 -- -- 69
2020-01-21 22:00:00 12.4 10 Noroeste 19 Oeste 0 -- -- 67
2020-01-21 21:00:00 12.2 9 Oeste 15 Oeste 0 -- -- 67
2020-01-21 20:00:00 12 10 Oeste 23 Noroeste 0 -- -- 77
2020-01-21 19:00:00 13 12 Norte 17 Norte 0 -- -- 70
2020-01-21 18:00:00 12.9 9 Oeste 21 Oeste 0 -- -- 71
2020-01-21 17:00:00 13 16 Oeste 33 Norte 0 -- -- 73
2020-01-21 16:00:00 14.5 16 Oeste 35 Noroeste 0 -- -- 59
2020-01-21 15:00:00 14.9 18 Noroeste 30 Noroeste 0.2 -- -- 55
2020-01-21 14:00:00 15.3 13 Oeste 35 Noroeste 0 -- -- 55
2020-01-21 13:00:00 14.4 14 Noroeste 27 Oeste 0 -- -- 61
2020-01-21 12:00:00 12.5 9 Oeste 27 Noroeste 0.2 -- -- 82
2020-01-21 11:00:00 14 15 Norte 28 Norte 0 -- -- 67
2020-01-21 10:00:00 14.1 13 Noroeste -- -- -- -- -- 62
2020-01-21 09:00:00 -- 12 Oeste 29 Noroeste 0 -- -- --
2020-01-21 08:00:00 13 13 Oeste 26 Noroeste 0 -- -- 66
2020-01-21 07:00:00 12.8 12 Oeste 24 Oeste 0 -- -- 70
2020-01-21 06:00:00 12.8 10 Oeste 25 Oeste 0 -- -- 71
2020-01-21 05:00:00 12.7 10 Noroeste 27 Oeste 0 -- -- 73
2020-01-21 04:00:00 13 15 Oeste 23 Noroeste 0 -- -- 68
2020-01-21 03:00:00 12.5 13 Oeste 24 Noroeste 0 -- -- 75
2020-01-21 02:00:00 12.6 12 Oeste 25 Oeste 0 -- -- 75
2020-01-21 01:00:00 12.2 11 Noroeste 30 Noroeste 0.2 -- -- 83
2020-01-21 00:00:00 12.7 13 Noroeste 34 Oeste 0 -- -- 79
2020-01-20 23:00:00 12.5 15 Noroeste 36 Noroeste 0 -- -- 78
2020-01-20 22:00:00 14.1 14 Noroeste 31 Oeste 0 -- -- 65
2020-01-20 21:00:00 14 22 Noroeste 39 Noroeste 0 -- -- 66
2020-01-20 20:00:00 14.1 17 Noroeste 31 Noroeste 0 -- -- 64
2020-01-20 19:00:00 14.2 18 Noroeste 37 Noroeste 0 -- -- 69
2020-01-20 18:00:00 14.7 13 Noroeste 32 Noroeste 0 -- -- 70
2020-01-20 17:00:00 14.7 18 Noroeste 33 Norte 0 -- -- 70
2020-01-20 16:00:00 15.1 17 Noroeste 33 Noroeste 0 -- -- 68
2020-01-20 15:00:00 15.7 20 Noroeste 42 Noroeste 0 -- -- 64
2020-01-20 14:00:00 16 21 Noroeste 35 Norte 0 -- -- 68
2020-01-20 13:00:00 14.9 21 Oeste 40 Noroeste 0 -- -- 68
2020-01-20 12:00:00 15.7 19 Noroeste 40 Noroeste 0 -- -- 67
2020-01-20 11:00:00 14.4 19 Noroeste 36 Oeste 0 -- -- 73
2020-01-20 10:00:00 13.8 15 Noroeste 34 Noroeste 0 -- -- 74
2020-01-20 09:00:00 13.5 16 Noroeste 33 Noroeste 0 -- -- 75
2020-01-20 08:00:00 13.6 15 Noroeste 32 Oeste 0 -- -- 70
2020-01-20 07:00:00 13.8 17 Noroeste 35 Noroeste 0 -- -- 72
2020-01-20 06:00:00 13.8 21 Noroeste 42 Oeste 0 -- -- 73
2020-01-20 05:00:00 14.4 18 Oeste 41 Noroeste 0 -- -- 73
2020-01-20 04:00:00 14.5 16 Noroeste 43 Noroeste 0 -- -- 76
2020-01-20 03:00:00 14.5 22 Noroeste 41 Noroeste 0 -- -- 79
2020-01-20 02:00:00 14.6 15 Noroeste 29 Oeste 0.2 -- -- 87
2020-01-20 01:00:00 14.7 21 Noroeste 36 Noroeste 0.4 -- -- 89
2020-01-20 00:00:00 15.8 16 Noroeste 30 Noroeste 0 -- -- 75
2020-01-19 23:00:00 15.9 12 Noroeste 30 Oeste 0 -- -- 73
2020-01-19 22:00:00 15 15 Noroeste 29 Noroeste 0 -- -- 79
2020-01-19 21:00:00 14.9 6 Noroeste 21 Oeste 0 -- -- 75
2020-01-19 20:00:00 14.9 11 Noroeste 19 Noroeste 0 -- -- 80
2020-01-19 19:00:00 14.9 9 Noroeste 21 Norte 0 -- -- 81
2020-01-19 18:00:00 15.9 15 Norte 23 Nordeste 0 -- -- 74
2020-01-19 17:00:00 18.4 12 Nordeste 25 Nordeste 0 -- -- 60
2020-01-19 16:00:00 19.7 12 Nordeste 27 Norte 0 -- -- 36
2020-01-19 15:00:00 19.8 13 Nordeste 26 Nordeste 0 -- -- 52
2020-01-19 14:00:00 20.1 12 Nordeste 25 Este 0 -- -- 60
2020-01-19 13:00:00 21 12 Este 18 Este 0 -- -- 41
2020-01-19 12:00:00 20.7 8 Este 14 Este 0 -- -- 26
2020-01-19 11:00:00 20.1 6 Este 15 Este 0 -- -- 27
2020-01-19 10:00:00 19.1 5 Este 18 Oeste 0 -- -- 27
2020-01-19 09:00:00 15.6 16 Oeste 23 Oeste 0 -- -- 27
2020-01-19 08:00:00 13.3 17 Oeste 24 Oeste 0 -- -- 29
2020-01-19 07:00:00 12.7 18 Oeste 22 Oeste 0 -- -- 31
2020-01-19 06:00:00 12.6 17 Oeste 22 Oeste 0 -- -- 31
2020-01-19 05:00:00 12.6 14 Oeste 20 Oeste 0 -- -- 32
2020-01-19 04:00:00 12.9 15 Oeste 22 Oeste 0 -- -- 32
2020-01-19 03:00:00 12.8 12 Oeste 22 Oeste 0 -- -- 33
2020-01-19 02:00:00 12.9 16 Oeste 22 Sudoeste 0 -- -- 32
2020-01-19 01:00:00 12.8 14 Oeste 19 Oeste 0 -- -- 31
2020-01-19 00:00:00 13 13 Oeste 22 Oeste 0 -- -- 30
2020-01-18 23:00:00 13 12 Oeste 22 Oeste 0 -- -- 29
2020-01-18 22:00:00 13.6 12 Oeste 23 Oeste 0 -- -- 28
2020-01-18 21:00:00 13.7 13 Oeste 21 Sudoeste 0 -- -- 30
2020-01-18 20:00:00 14.3 12 Sudoeste 19 Oeste 0 -- -- 35
2020-01-18 19:00:00 14.5 9 Sudoeste 15 Sudoeste 0 -- -- 39
2020-01-18 18:00:00 17.6 4 Sudoeste 9 Este 0 -- -- 44
2020-01-18 17:00:00 18.3 6 Este 17 Este 0 -- -- 47
2020-01-18 16:00:00 19.2 10 Este 20 Sudeste 0 -- -- 45
2020-01-18 15:00:00 19.2 12 Sudeste 26 Este 0 -- -- 45
2020-01-18 14:00:00 19.2 17 Este 28 Sudeste 0 -- -- 42
2020-01-18 13:00:00 19.5 15 Este 25 Sudeste 0 -- -- 40
2020-01-18 12:00:00 19.1 14 Este 25 Este 0 -- -- 36
2020-01-18 11:00:00 19.1 14 Este 26 Este 0 -- -- 31
2020-01-18 10:00:00 18.6 12 Sudeste 21 Sudeste 0 -- -- 28
2020-01-18 09:00:00 16.2 7 Sur 14 Sudoeste 0 -- -- 34
2020-01-18 08:00:00 14.2 10 Sudoeste 14 Sur 0 -- -- 34
2020-01-18 07:00:00 14.6 9 Sur 17 Sur 0 -- -- 36
2020-01-18 06:00:00 14.4 9 Sudoeste 17 Sudoeste 0 -- -- 32
2020-01-18 05:00:00 14.7 9 Sudoeste 14 Sudoeste 0 -- -- 30
2020-01-18 04:00:00 12.9 12 Sudoeste 14 Sudoeste 0 -- -- 31
2020-01-18 03:00:00 13 10 Oeste 17 Oeste 0 -- -- 29
2020-01-18 02:00:00 11.8 8 Sudoeste 13 Sudoeste 0 -- -- 31
2020-01-18 01:00:00 11.9 7 Sudoeste 14 Sudoeste 0 -- -- 30
2020-01-18 00:00:00 12.5 9 Oeste 18 Oeste 0 -- -- 30
2020-01-17 23:00:00 13 11 Oeste 18 Oeste 0 -- -- 27
2020-01-17 22:00:00 13.6 12 Sudoeste 17 Oeste 0 -- -- 28
2020-01-17 21:00:00 13.1 12 Oeste 17 Oeste 0 -- -- 35
2020-01-17 20:00:00 12.7 10 Oeste 16 Oeste 0 -- -- 45
2020-01-17 19:00:00 13.3 8 Oeste 12 Oeste 0 -- -- 43
2020-01-17 18:00:00 16.2 6 Este 14 Sudeste 0 -- -- 52
2020-01-17 17:00:00 17.8 9 Este 18 Este 0 -- -- 43
2020-01-17 16:00:00 18.3 11 Este 23 Este 0 -- -- 37
2020-01-17 15:00:00 18.4 12 Sudeste 24 Sudeste 0 -- -- 49
2020-01-17 14:00:00 18.5 13 Este 23 Este 0 -- -- 46
2020-01-17 13:00:00 18.1 10 Este 29 Este 0 -- -- 50
2020-01-17 12:00:00 18.1 13 Este 24 Sudeste 0 -- -- 43
2020-01-17 11:00:00 17.5 11 Sudeste 19 Este 0 -- -- 40
2020-01-17 10:00:00 17 5 Este 9 Oeste 0 -- -- 39
2020-01-17 09:00:00 12.6 7 Oeste 18 Oeste 0 -- -- 41
2020-01-17 08:00:00 11 11 Oeste 18 Oeste 0 -- -- 44
2020-01-17 07:00:00 10 10 Oeste 19 Oeste 0 -- -- 52
2020-01-17 06:00:00 10.4 12 Oeste 19 Sudoeste 0 -- -- 45
2020-01-17 05:00:00 10.8 12 Oeste 18 Oeste 0 -- -- 39
2020-01-17 04:00:00 11.3 14 Oeste 21 Oeste 0 -- -- 33
2020-01-17 03:00:00 11.5 14 Oeste 21 Oeste 0 -- -- 36
2020-01-17 02:00:00 11.9 15 Oeste 21 Oeste 0 -- -- 40
2020-01-17 01:00:00 12.1 15 Oeste 21 Oeste 0 -- -- 42
2020-01-17 00:00:00 12.2 13 Oeste 21 Oeste 0 -- -- 43
2020-01-16 23:00:00 12.5 15 Oeste 20 Oeste 0 -- -- 43
2020-01-16 22:00:00 12.4 14 Oeste 18 Oeste 0 -- -- 41
2020-01-16 21:00:00 13 14 Oeste 20 Oeste 0 -- -- 38
2020-01-16 20:00:00 13.4 14 Oeste 20 Oeste 0 -- -- 39
2020-01-16 19:00:00 13.5 9 Oeste 14 Oeste 0 -- -- 43
2020-01-16 18:00:00 17.3 4 Sudeste 10 Sudeste 0 -- -- 34
2020-01-16 17:00:00 18.3 8 Sudeste 17 Este 0 -- -- 33
2020-01-16 16:00:00 18.7 9 Este 23 Este 0 -- -- 36
2020-01-16 15:00:00 19.3 14 Este 27 Sudeste 0 -- -- 33
2020-01-16 14:00:00 19.4 15 Este 27 Este 0 -- -- 36
2020-01-16 13:00:00 18.8 14 Este 27 Sudeste 0 -- -- 46
2020-01-16 12:00:00 19.1 12 Este 25 Este 0 -- -- 38
2020-01-16 11:00:00 18.3 12 Este 21 Este 0 -- -- 53
2020-01-16 10:00:00 16.1 4 Norte 13 Oeste 0 -- -- 59
2020-01-16 09:00:00 12.1 9 Oeste 19 Oeste 0 -- -- 45
2020-01-16 08:00:00 10.8 11 Oeste 16 Oeste 0 -- -- 46
2020-01-16 07:00:00 10.6 11 Oeste 17 Oeste 0 -- -- 42
2020-01-16 06:00:00 11.3 10 Oeste 18 Oeste 0 -- -- 40
2020-01-16 05:00:00 11.5 15 Oeste 21 Oeste 0 -- -- 40
2020-01-16 04:00:00 10.6 8 Oeste 13 Sudoeste 0 -- -- 60
2020-01-16 03:00:00 11.1 9 Oeste 14 Oeste 0 -- -- 42
2020-01-16 02:00:00 11.1 6 Sudoeste 15 Oeste 0 -- -- 41
2020-01-16 01:00:00 11 5 Oeste 12 Sur 0 -- -- 40
2020-01-16 00:00:00 13.5 7 Sudoeste 19 Sur 0 -- -- 33
2020-01-15 23:00:00 14.1 13 Sudoeste 17 Sudoeste 0 -- -- 32
2020-01-15 22:00:00 14 13 Sudoeste 18 Sudoeste 0 -- -- 32
2020-01-15 21:00:00 13.8 9 Sudoeste 18 Sudoeste 0 -- -- 34
2020-01-15 20:00:00 14.2 12 Sudoeste 15 Sudoeste 0 -- -- 35
2020-01-15 19:00:00 14.4 10 Sudoeste 15 Sudoeste 0 -- -- 41
2020-01-15 18:00:00 16.2 5 Sudeste 18 Este 0 -- -- 48
2020-01-15 17:00:00 17.1 11 Sudeste 26 Este 0 -- -- 53
2020-01-15 16:00:00 17.8 15 Este 33 Este 0 -- -- 50
2020-01-15 15:00:00 18.2 22 Este 35 Este 0 -- -- 46
2020-01-15 14:00:00 18.6 23 Este 36 Este 0 -- -- 38
2020-01-15 13:00:00 18.8 15 Este 29 Este 0 -- -- 50
2020-01-15 12:00:00 17.8 20 Este 34 Sudeste 0 -- -- 54
2020-01-15 11:00:00 18.1 16 Este 27 Este 0 -- -- 42
2020-01-15 10:00:00 16.6 8 Este 13 Este 0 -- -- 44
2020-01-15 09:00:00 12.3 7 Oeste 13 Oeste 0 -- -- 40
2020-01-15 08:00:00 11.2 10 Sudoeste 17 Sudoeste 0 -- -- 40
2020-01-15 07:00:00 10.4 9 Oeste 15 Oeste 0 -- -- 49
2020-01-15 06:00:00 10.3 7 Sudoeste 15 Oeste 0 -- -- 44
2020-01-15 05:00:00 10.9 9 Oeste 15 Oeste 0 -- -- 43
2020-01-15 04:00:00 11.2 7 Sudoeste 12 Sudoeste 0 -- -- 40
2020-01-15 03:00:00 10.6 8 Oeste 12 Sudoeste 0 -- -- 43
2020-01-15 02:00:00 10.9 7 Sudoeste 12 Oeste 0 -- -- 43
2020-01-15 01:00:00 11.4 8 Oeste 17 Oeste 0 -- -- 42
2020-01-15 00:00:00 11.2 10 Oeste 17 Oeste 0 -- -- 52
2020-01-14 23:00:00 11.5 8 Oeste 15 Sudoeste 0 -- -- 47
2020-01-14 22:00:00 12.4 8 Sudoeste 14 Sudoeste 0 -- -- 41
2020-01-14 21:00:00 12.8 10 Oeste 14 Oeste 0 -- -- 54
2020-01-14 20:00:00 12.8 6 Sudoeste 15 Sur 0 -- -- 49
2020-01-14 19:00:00 15 9 Sur 20 Sur 0 -- -- 49
2020-01-14 18:00:00 16.1 14 Sur 31 Sur 0 -- -- 43
2020-01-14 17:00:00 17.8 13 Sur 30 Sudeste 0 -- -- 37
2020-01-14 16:00:00 18.4 18 Sur 37 Sur 0 -- -- 35
2020-01-14 15:00:00 18.9 18 Sur 38 Sudeste 0 -- -- 35
2020-01-14 14:00:00 19.4 14 Sudeste 27 Sudeste 0 -- -- 30
2020-01-14 13:00:00 19.2 14 Sur 30 Sudoeste 0 -- -- 31
2020-01-14 12:00:00 18.9 12 Sur 30 Sur 0 -- -- 38
2020-01-14 11:00:00 18.3 12 Sur 30 Sur 0 -- -- 40
2020-01-14 10:00:00 17.3 14 Sur 23 Sudeste 0 -- -- 40
2020-01-14 09:00:00 15.7 8 Sur 20 Sudoeste 0 -- -- 56
2020-01-14 08:00:00 14.5 11 Sudoeste 21 Sur 0 -- -- 60
2020-01-14 07:00:00 14 8 Sur 12 Sur 0 -- -- 42
2020-01-14 06:00:00 14 5 Sur 16 Sudoeste 0 -- -- 43
2020-01-14 05:00:00 13.7 9 Sudoeste 16 Sudoeste 0 -- -- 41
2020-01-14 04:00:00 14.1 12 Sudoeste 17 Sur 0 -- -- 42
2020-01-14 03:00:00 14 9 Sur 15 Sur 0 -- -- 54
2020-01-14 02:00:00 12 4 Oeste 15 Sudoeste 0 -- -- 65
2020-01-14 01:00:00 13.7 6 Sudeste 17 Sudeste 0 -- -- 64
2020-01-14 00:00:00 13.9 9 Sudoeste 13 Sudoeste 0 -- -- 35
2020-01-13 23:00:00 13.9 10 Sudoeste 13 Sudoeste 0 -- -- 35
2020-01-13 22:00:00 14.4 10 Sudoeste 12 Sudoeste 0 -- -- 34
2020-01-13 21:00:00 14.7 8 Sudoeste 13 Sudoeste 0 -- -- 35
2020-01-13 20:00:00 16 5 Sudoeste 22 Sudoeste 0 -- -- 31
2020-01-13 19:00:00 16.3 8 Sur 28 Sur 0 -- -- 35
2020-01-13 18:00:00 17.4 16 Sur 30 Sudeste 0 -- -- 32
2020-01-13 17:00:00 18.4 14 Sur 33 Sudeste 0 -- -- 41
2020-01-13 16:00:00 18.8 16 Sudeste 35 Este 0 -- -- 41
2020-01-13 15:00:00 18.9 19 Sudeste 36 Sudeste 0 -- -- 47
2020-01-13 14:00:00 19.8 13 Sudeste 34 Sudeste 0 -- -- 42
2020-01-13 13:00:00 18.9 15 Sudeste 31 Sudeste 0 -- -- 57
2020-01-13 12:00:00 18.3 18 Este 29 Sudeste 0 -- -- 63
2020-01-13 11:00:00 18 13 Este 22 Sudeste 0 -- -- 63
2020-01-13 10:00:00 16.6 11 Este 16 Este 0 -- -- 68
2020-01-13 09:00:00 12.7 8 Oeste 15 Oeste 0 -- -- 76
2020-01-13 08:00:00 11.6 9 Oeste 14 Oeste 0 -- -- 81
2020-01-13 07:00:00 12.4 6 Sudoeste 13 Sudoeste 0 -- -- 79
2020-01-13 06:00:00 12.2 9 Sudoeste 14 Sudoeste 0 -- -- 76
2020-01-13 05:00:00 12 7 Sudoeste 14 Sudoeste 0 -- -- 70
2020-01-13 04:00:00 11.8 8 Sudoeste 24 Oeste 0 -- -- 66
2020-01-13 03:00:00 11.1 9 Oeste 16 Oeste 0 -- -- 68
2020-01-13 02:00:00 11.4 11 Sudoeste 16 Sudoeste 0 -- -- 72
2020-01-13 01:00:00 11.3 9 Oeste 18 Oeste 0 -- -- 62
2020-01-13 00:00:00 11.4 15 Oeste 19 Oeste 0 -- -- 56
2020-01-12 23:00:00 12 13 Oeste 18 Oeste 0 -- -- 53
2020-01-12 22:00:00 11.7 12 Oeste 18 Oeste 0 -- -- 52
2020-01-12 21:00:00 12.4 12 Oeste 18 Oeste 0 -- -- 55
2020-01-12 20:00:00 12.4 12 Oeste 17 Oeste 0 -- -- 68
2020-01-12 19:00:00 13.6 8 Este 17 Oeste 0 -- -- 56
2020-01-12 18:00:00 15.6 0 Calma 12 Nordeste 0 -- -- 62
2020-01-12 17:00:00 16.7 7 Este 23 Este 0 -- -- 61
2020-01-12 16:00:00 17.2 9 Este 23 Sudeste 0 -- -- 53
2020-01-12 15:00:00 17.5 9 Este 23 Nordeste 0 -- -- 52
2020-01-12 14:00:00 16.9 10 Este 18 Nordeste 0 -- -- 63
2020-01-12 13:00:00 15.8 9 Nordeste 19 Nordeste 0 -- -- 68
2020-01-12 12:00:00 16.2 11 Nordeste 19 Nordeste 0 -- -- 68
2020-01-12 11:00:00 15.9 10 Nordeste 21 Nordeste 0 -- -- 65
2020-01-12 10:00:00 15.2 8 Oeste 19 Oeste 0 -- -- 66
2020-01-12 09:00:00 14.6 10 Oeste 22 Noroeste 0 -- -- 70
2020-01-12 08:00:00 14.2 12 Oeste 21 Oeste 0 -- -- 70
2020-01-12 07:00:00 14.1 10 Noroeste 24 Oeste 0 -- -- 75
2020-01-12 06:00:00 14.1 11 Noroeste 21 Noroeste 0 -- -- 77
2020-01-12 05:00:00 14.2 8 Noroeste 19 Noroeste 0 -- -- 77
2020-01-12 04:00:00 14.4 9 Noroeste 21 Oeste 0 -- -- 75
2020-01-12 03:00:00 14.1 9 Oeste 26 Noroeste 0 -- -- 78
2020-01-12 02:00:00 14.3 8 Noroeste 24 Oeste 0 -- -- 77
2020-01-12 01:00:00 14.2 11 Oeste 28 Oeste 0 -- -- 78
2020-01-12 00:00:00 14.6 12 Oeste 25 Noroeste 0 -- -- 73
2020-01-11 23:00:00 13.9 11 Oeste 27 Noroeste 0 -- -- 82
2020-01-11 22:00:00 14.2 14 Oeste 28 Oeste 0 -- -- 78
2020-01-11 21:00:00 13.7 13 Noroeste 28 Noroeste 0 -- -- 82
2020-01-11 20:00:00 14.3 10 Noroeste 28 Noroeste 0 -- -- 71
2020-01-11 19:00:00 14.3 15 Noroeste 27 Oeste 0 -- -- 73
2020-01-11 18:00:00 14.3 13 Noroeste 27 Noroeste 0.2 -- -- 81
2020-01-11 17:00:00 14.3 10 Noroeste 28 Noroeste 0 -- -- 83
2020-01-11 16:00:00 14.8 18 Noroeste 31 Noroeste 0 -- -- 77
2020-01-11 15:00:00 16.3 17 Noroeste 34 Noroeste 0 -- -- 68
2020-01-11 14:00:00 16.3 14 Norte 26 Noroeste 0 -- -- 68
2020-01-11 13:00:00 16.3 12 Noroeste 27 Noroeste 0 -- -- 71
2020-01-11 12:00:00 16.4 13 Noroeste 31 Noroeste 0 -- -- 68
2020-01-11 11:00:00 15.5 13 Noroeste 28 Noroeste 0 -- -- 73
2020-01-11 10:00:00 15.3 11 Noroeste 31 Noroeste 0 -- -- 68
2020-01-11 09:00:00 14.8 15 Oeste 31 Oeste 0 -- -- 69
2020-01-11 08:00:00 14.4 16 Oeste 26 Oeste 0 -- -- 72
2020-01-11 07:00:00 14.5 16 Oeste 29 Oeste 0 -- -- 72
2020-01-11 06:00:00 14.5 17 Noroeste 31 Noroeste 0 -- -- 74
2020-01-11 05:00:00 14.7 13 Noroeste 32 Noroeste 0 -- -- 74
2020-01-11 04:00:00 14.8 14 Noroeste 28 Noroeste 0 -- -- 81
2020-01-11 03:00:00 14.9 10 Noroeste 27 Noroeste 0 -- -- 78
2020-01-11 02:00:00 14.7 9 Noroeste 22 Oeste 0 -- -- 85
2020-01-11 01:00:00 14.8 11 Noroeste 25 Noroeste 0.2 -- -- 87
2020-01-11 00:00:00 14.9 16 Noroeste 28 Oeste 0 -- -- 79
2020-01-10 23:00:00 15.5 17 Oeste 33 Noroeste 0 -- -- 76
2020-01-10 22:00:00 15.6 14 Oeste 31 Oeste 0 -- -- 75
2020-01-10 21:00:00 15.6 13 Noroeste 24 Noroeste 0 -- -- 71
2020-01-10 20:00:00 15.6 17 Oeste 24 Oeste 0 -- -- 70
2020-01-10 19:00:00 15.6 11 Noroeste 21 Noroeste 0 -- -- 75
2020-01-10 18:00:00 15.8 12 Noroeste 29 Noroeste 0 -- -- 77
2020-01-10 17:00:00 15.8 11 Noroeste 23 Noroeste 0 -- -- 79
2020-01-10 16:00:00 16.2 12 Noroeste 31 Noroeste 0 -- -- 77
2020-01-10 15:00:00 16.6 15 Norte 31 Nordeste 0 -- -- 72
2020-01-10 14:00:00 17.1 15 Norte 33 Norte 0 -- -- 72
2020-01-10 13:00:00 15.8 13 Noroeste 31 Norte 0 -- -- 83
2020-01-10 12:00:00 16 10 Norte 29 Norte 0 -- -- 81
2020-01-10 11:00:00 15.1 12 Norte 31 Noroeste 0.6 -- -- 90
2020-01-10 10:00:00 15 10 Noroeste 36 Norte 0.2 -- -- 90
2020-01-10 09:00:00 15.3 11 Oeste 24 Oeste 0 -- -- 84
2020-01-10 08:00:00 14.7 12 Noroeste 26 Noroeste 0.2 -- -- 86
2020-01-10 07:00:00 14.2 9 Noroeste 23 Noroeste 0.2 -- -- 88
2020-01-10 06:00:00 15.3 12 Oeste 32 Oeste 0 -- -- 77
2020-01-10 05:00:00 14.9 14 Noroeste 28 Noroeste 0 -- -- 80
2020-01-10 04:00:00 14.9 14 Noroeste 32 Noroeste 0 -- -- 76
2020-01-10 03:00:00 14.7 10 Noroeste 33 Noroeste 0 -- -- 79
2020-01-10 02:00:00 15.2 16 Noroeste 27 Oeste 0 -- -- 73
2020-01-10 01:00:00 15.1 15 Oeste 35 Oeste 0 -- -- 71
2020-01-10 00:00:00 15.1 18 Oeste 33 Oeste 0 -- -- 69
2020-01-09 23:00:00 15.1 14 Noroeste 35 Noroeste 0 -- -- 71
2020-01-09 22:00:00 15.1 12 Noroeste 33 Noroeste 0 -- -- 71
2020-01-09 21:00:00 15 14 Noroeste 28 Noroeste 0 -- -- 67
2020-01-09 20:00:00 14.9 13 Norte 35 Noroeste 0 -- -- 78
2020-01-09 19:00:00 15.2 13 Norte 38 Noroeste 0 -- -- 74
2020-01-09 18:00:00 15.6 18 Noroeste 33 Noroeste 0 -- -- 73
2020-01-09 17:00:00 16.4 19 Noroeste 37 Oeste 0 -- -- 68
2020-01-09 16:00:00 17.5 17 Noroeste 37 Norte 0 -- -- 63
2020-01-09 15:00:00 17.6 22 Norte 39 Noroeste 0 -- -- 59
2020-01-09 14:00:00 17.1 21 Noroeste 42 Noroeste 0 -- -- 57
2020-01-09 13:00:00 17.8 19 Norte 41 Noroeste 0 -- -- 59
2020-01-09 12:00:00 16.8 21 Noroeste 36 Noroeste 0 -- -- 64
2020-01-09 11:00:00 15.8 11 Noroeste 27 Noroeste 0 -- -- 70
2020-01-09 10:00:00 15.5 13 Noroeste 33 Noroeste 0 -- -- 72
2020-01-09 09:00:00 14.7 10 Noroeste 25 Noroeste 0 -- -- 75
2020-01-09 08:00:00 14.3 11 Oeste 26 Noroeste 0 -- -- 74
2020-01-09 07:00:00 14.5 12 Noroeste 27 Noroeste 0 -- -- 74
2020-01-09 06:00:00 14 13 Oeste 21 Oeste 0 -- -- 79
2020-01-09 05:00:00 14.3 10 Noroeste 22 Oeste 0 -- -- 77
2020-01-09 04:00:00 14.3 11 Noroeste 21 Oeste 0 -- -- 75
2020-01-09 03:00:00 13.5 9 Oeste 17 Oeste 0 -- -- 79
2020-01-09 02:00:00 14 7 Oeste 16 Oeste 0 -- -- 78
2020-01-09 01:00:00 14.2 6 Noroeste 20 Norte 0 -- -- 77
2020-01-09 00:00:00 14.3 8 Noroeste 24 Noroeste 0 -- -- 76
2020-01-08 23:00:00 14.3 8 Noroeste 18 Oeste 0 -- -- 77
2020-01-08 22:00:00 14.2 9 Noroeste 21 Noroeste 0 -- -- 75
2020-01-08 21:00:00 14.6 10 Noroeste 23 Norte 0 -- -- 74
2020-01-08 20:00:00 14.7 10 Noroeste 26 Norte 0 -- -- 74
2020-01-08 19:00:00 14.9 8 Norte 31 Norte 0 -- -- 72
2020-01-08 18:00:00 15.2 15 Norte 27 Nordeste 0 -- -- 73
2020-01-08 17:00:00 15.6 13 Norte 24 Nordeste 0 -- -- 71
2020-01-08 16:00:00 16.3 12 Nordeste 29 Nordeste 0 -- -- 67
2020-01-08 15:00:00 17.1 13 Nordeste 27 Norte 0 -- -- 67
2020-01-08 14:00:00 17.2 12 Nordeste 24 Este 0 -- -- 67
2020-01-08 13:00:00 16.7 12 Nordeste 27 Este 0 -- -- 67
2020-01-08 12:00:00 16.2 13 Nordeste 25 Nordeste 0 -- -- 67
2020-01-08 11:00:00 16.2 14 Nordeste 28 Este 0 -- -- 75
2020-01-08 10:00:00 16.2 15 Este 26 Este 0 -- -- 71
2020-01-08 09:00:00 13.6 5 Oeste 9 Oeste 0 -- -- 81
2020-01-08 08:00:00 13.7 5 Oeste 12 Oeste 0 -- -- 80
2020-01-08 07:00:00 13.8 5 Oeste 12 Noroeste 0 -- -- 79
2020-01-08 06:00:00 13.9 7 Noroeste 15 Norte 0 -- -- 78
2020-01-08 05:00:00 14 6 Noroeste 14 Nordeste 0 -- -- 79
2020-01-08 04:00:00 14.2 6 Noroeste 22 Norte 0 -- -- 79
2020-01-08 03:00:00 14.2 6 Noroeste 19 Noroeste 0 -- -- 80
2020-01-08 02:00:00 14.1 4 Noroeste 20 Norte 0 -- -- 81
2020-01-08 01:00:00 14.2 8 Noroeste 18 Oeste 0 -- -- 79
2020-01-08 00:00:00 14.3 9 Noroeste 21 Oeste 0 -- -- 78
2020-01-07 23:00:00 14.7 9 Noroeste 22 Nordeste 0 -- -- 78
2020-01-07 22:00:00 15.1 13 Norte 28 Nordeste 0 -- -- 79
2020-01-07 21:00:00 15.2 12 Norte 28 Nordeste 0 -- -- 80
2020-01-07 20:00:00 15.3 10 Norte 21 Norte 0 -- -- 81
2020-01-07 19:00:00 15.3 9 Norte 27 Noroeste 0 -- -- 78
2020-01-07 18:00:00 16.1 8 Norte 17 Nordeste 0 -- -- 70
2020-01-07 17:00:00 16.8 9 Nordeste 18 Nordeste 0 -- -- 58
2020-01-07 16:00:00 17.2 8 Nordeste 19 Este 0 -- -- 58
2020-01-07 15:00:00 17.6 9 Nordeste 21 Nordeste 0 -- -- 59
2020-01-07 14:00:00 16.9 12 Nordeste 23 Este 0 -- -- 66
2020-01-07 13:00:00 16.2 10 Nordeste 27 Nordeste 0 -- -- 69
2020-01-07 12:00:00 15.6 10 Nordeste 26 Nordeste 0 -- -- 74
2020-01-07 11:00:00 16.1 12 Este 26 Este 0 -- -- 71
2020-01-07 10:00:00 15.2 14 Nordeste 22 Nordeste 0 -- -- 73
2020-01-07 09:00:00 14.5 9 Nordeste 23 Nordeste 0 -- -- 76
2020-01-07 08:00:00 13.6 6 Nordeste 14 Nordeste 0 -- -- 79
2020-01-07 07:00:00 13.6 7 Nordeste 17 Este 0 -- -- 78
2020-01-07 06:00:00 13.8 7 Norte 14 Norte 0 -- -- 80
2020-01-07 05:00:00 13.7 7 Norte 16 Oeste 0 -- -- 81
2020-01-07 04:00:00 13.9 8 Noroeste 17 Noroeste 0 -- -- 79
2020-01-07 03:00:00 13.9 9 Noroeste 18 Noroeste 0 -- -- 85
2020-01-07 02:00:00 13.6 6 Noroeste 41 Norte 0.6 -- -- 85
2020-01-07 01:00:00 14.6 12 Noroeste 27 Noroeste 0 -- -- 77
2020-01-07 00:00:00 14.5 11 Noroeste 37 Noroeste 0 -- -- 79
2020-01-06 23:00:00 14.7 12 Norte 31 Norte 0 -- -- 78
2020-01-06 22:00:00 14.5 12 Norte 39 Nordeste 0 -- -- 78
2020-01-06 21:00:00 14.2 17 Norte 42 Norte 0.2 -- -- 84
2020-01-06 20:00:00 14.7 14 Noroeste 36 Noroeste 0 -- -- 77
2020-01-06 19:00:00 14.9 24 Noroeste 44 Noroeste 0 -- -- 76
2020-01-06 18:00:00 15.3 15 Noroeste 39 Oeste 0 -- -- 72
2020-01-06 17:00:00 15.8 19 Noroeste 36 Noroeste 0 -- -- 68
2020-01-06 16:00:00 17 23 Noroeste 37 Oeste 0 -- -- 64
2020-01-06 15:00:00 16.9 20 Noroeste 35 Noroeste 0 -- -- 65
2020-01-06 14:00:00 17.6 17 Norte 30 Norte 0 -- -- 59
2020-01-06 13:00:00 17.6 14 Norte 37 Noroeste 0 -- -- 60
2020-01-06 12:00:00 16.8 17 Noroeste 36 Noroeste 0 -- -- 64
2020-01-06 11:00:00 16.6 20 Noroeste 38 Noroeste 0 -- -- 58
2020-01-06 10:00:00 15.8 18 Noroeste 32 Noroeste 0 -- -- 67
2020-01-06 09:00:00 15.2 12 Noroeste 24 Oeste 0 -- -- 68